Time;durP1;ratioP1;P1;durP2;ratioP2;P2;SDS_P1;SDS_P2;PMS_P1;PMS_P2;Temp;Humidity;BMP_temperature;BMP_pressure;BME280_temperature;BME280_humidity;BME280_pressure;Samples;Min_cycle;Max_cycle;Signal;HPM_P1;HPM_P2
2022/10/30 00:00:24;;;;;;;19.50;8.97;;;;;;;-145.18;100.00;46672.13;4990704;28;20091;-71
2022/10/30 00:02:49;;;;;;;17.00;7.93;;;;;;;-145.18;100.00;46676.03;4990466;28;20038;-71
2022/10/30 00:05:15;;;;;;;17.07;9.23;;;;;;;-145.18;100.00;46670.16;4990577;28;20077;-71
2022/10/30 00:07:41;;;;;;;17.63;8.03;;;;;;;-145.18;100.00;46666.25;4990406;28;20041;-71
2022/10/30 00:10:07;;;;;;;19.30;8.03;;;;;;;-145.18;100.00;46679.94;4973638;28;20031;-71
2022/10/30 00:12:33;;;;;;;18.43;8.37;;;;;;;-145.18;100.00;46672.13;4990596;28;20026;-72
2022/10/30 00:14:58;;;;;;;21.13;7.80;;;;;;;-145.18;100.00;46670.16;4990207;28;20087;-71
2022/10/30 00:17:23;;;;;;;16.33;8.23;;;;;;;-145.18;100.00;46676.03;4990514;28;20399;-71
2022/10/30 00:19:49;;;;;;;18.37;7.60;;;;;;;-145.18;100.00;46674.06;4989999;28;20087;-71
2022/10/30 00:22:14;;;;;;;17.57;8.17;;;;;;;-145.18;100.00;46676.03;4990012;28;20127;-71
2022/10/30 00:24:39;;;;;;;18.87;8.20;;;;;;;-145.18;100.00;46676.03;4990200;28;20030;-71
2022/10/30 00:27:05;;;;;;;21.57;9.50;;;;;;;-145.18;100.00;46670.16;4989668;28;20131;-71
2022/10/30 00:29:30;;;;;;;25.03;8.57;;;;;;;-145.18;100.00;46666.25;4989986;28;20038;-71
2022/10/30 00:31:55;;;;;;;21.17;7.40;;;;;;;-145.18;100.00;46668.22;4989408;28;20034;-71
2022/10/30 00:34:21;;;;;;;14.30;8.30;;;;;;;-145.18;100.00;46670.16;4989944;28;20031;-71
2022/10/30 00:36:46;;;;;;;24.80;9.30;;;;;;;-145.18;100.00;46668.22;4989522;28;20559;-71
2022/10/30 00:39:12;;;;;;;18.93;8.33;;;;;;;-145.18;100.00;46666.25;4989984;28;20045;-71
2022/10/30 00:41:40;;;;;;;22.77;8.80;;;;;;;-145.18;100.00;46668.22;4971778;28;20046;-71
2022/10/30 00:44:43;;;;;;;28.37;9.90;;;;;;;-145.18;100.00;46666.25;4989715;28;20034;-71
2022/10/30 00:47:41;;;;;;;21.57;9.00;;;;;;;-145.18;100.00;46664.31;4989783;28;20057;-71
2022/10/30 00:50:15;;;;;;;20.17;9.20;;;;;;;-145.18;100.00;46670.16;4989432;28;20058;-71
2022/10/30 00:52:56;;;;;;;25.43;8.77;;;;;;;-145.18;100.00;46666.25;4987026;28;20478;-71
2022/10/30 00:55:30;;;;;;;17.97;8.33;;;;;;;-145.18;100.00;46668.22;4989558;28;20094;-71
2022/10/30 00:57:58;;;;;;;18.43;7.43;;;;;;;-145.18;100.00;46668.22;4989323;28;20071;-71
2022/10/30 01:00:26;;;;;;;19.03;8.23;;;;;;;-145.18;100.00;46670.16;4989781;28;20039;-71
2022/10/30 01:02:52;;;;;;;15.33;7.40;;;;;;;-145.18;100.00;46670.16;4989226;28;20041;-71
2022/10/30 01:05:21;;;;;;;15.60;8.33;;;;;;;-145.18;100.00;46670.16;4989438;28;20065;-71
2022/10/30 01:07:46;;;;;;;17.43;7.83;;;;;;;-145.18;100.00;46666.25;4989098;28;20046;-71
2022/10/30 01:10:12;;;;;;;24.20;8.90;;;;;;;-145.18;100.00;46664.31;4971889;28;20034;-71
2022/10/30 01:12:38;;;;;;;16.90;9.43;;;;;;;-145.18;100.00;46666.25;4989404;28;20119;-71
2022/10/30 01:15:05;;;;;;;18.13;8.87;;;;;;;-145.18;100.00;46664.31;4989079;28;20034;-71
2022/10/30 01:17:55;;;;;;;20.93;9.77;;;;;;;-145.18;100.00;46668.22;4989200;28;20034;-71
2022/10/30 01:20:58;;;;;;;29.43;9.03;;;;;;;-145.18;100.00;46658.44;4989403;28;20554;-72
2022/10/30 01:23:42;;;;;;;23.00;8.77;;;;;;;-145.18;100.00;46660.41;4919392;28;20044;-71
2022/10/30 01:26:25;;;;;;;25.50;9.13;;;;;;;-145.18;100.00;46660.41;4988784;28;20531;-71
2022/10/30 01:29:28;;;;;;;25.47;9.97;;;;;;;-145.18;100.00;46656.50;4988959;28;20478;-71
2022/10/30 01:32:25;;;;;;;24.27;9.53;;;;;;;-145.18;100.00;46664.31;4988693;28;20105;-71
2022/10/30 01:35:14;;;;;;;25.03;9.20;;;;;;;-145.18;100.00;46666.25;4948889;28;20053;-71
2022/10/30 01:37:43;;;;;;;22.87;10.17;;;;;;;-145.18;100.00;46660.41;4988686;28;20109;-71
2022/10/30 01:40:12;;;;;;;20.53;9.43;;;;;;;-145.18;100.00;46670.16;4988679;28;20061;-71
2022/10/30 01:42:55;;;;;;;24.80;9.70;;;;;;;-145.18;100.00;46660.41;4989017;28;20041;-72
2022/10/30 01:45:34;;;;;;;24.37;8.87;;;;;;;-145.18;100.00;46660.41;4988536;28;20096;-71
2022/10/30 01:48:34;;;;;;;13.60;8.93;;;;;;;-145.18;100.00;46662.34;4988527;28;20097;-72
2022/10/30 01:51:42;;;;;;;20.87;9.60;;;;;;;-145.18;100.00;46664.31;4988574;28;20042;-71
2022/10/30 01:54:21;;;;;;;16.20;8.47;;;;;;;-145.18;100.00;46664.31;4908957;29;20079;-71
2022/10/30 01:56:47;;;;;;;21.20;9.50;;;;;;;-145.18;100.00;46660.41;4983456;28;20125;-71
2022/10/30 01:59:24;;;;;;;28.07;10.13;;;;;;;-145.18;100.00;46664.31;4988831;28;20109;-71
2022/10/30 02:01:49;;;;;;;20.27;8.93;;;;;;;-145.18;100.00;46658.44;4988262;28;20030;-71
2022/10/30 02:04:15;;;;;;;19.13;8.80;;;;;;;-145.18;100.00;46666.25;4988684;28;20072;-71
2022/10/30 02:06:41;;;;;;;20.10;9.13;;;;;;;-145.18;100.00;46660.41;4988216;28;20060;-71
2022/10/30 02:09:06;;;;;;;19.97;9.67;;;;;;;-145.18;100.00;46662.34;4988396;28;20038;-71
2022/10/30 02:11:33;;;;;;;24.33;9.00;;;;;;;-145.18;100.00;46660.41;4969885;28;20030;-72
2022/10/30 02:14:03;;;;;;;20.47;9.67;;;;;;;-145.18;100.00;46664.31;4988087;28;20121;-71
2022/10/30 02:16:29;;;;;;;20.60;10.07;;;;;;;-145.18;100.00;46664.31;4988196;28;20039;-71
2022/10/30 02:18:54;;;;;;;18.50;8.40;;;;;;;-145.18;100.00;46670.16;4988556;28;20405;-71
2022/10/30 02:21:20;;;;;;;21.47;8.93;;;;;;;-145.18;100.00;46666.25;4970814;28;20034;-72
2022/10/30 02:23:45;;;;;;;18.80;8.23;;;;;;;-145.18;100.00;46662.34;4988452;28;20038;-71
2022/10/30 02:26:10;;;;;;;18.10;7.63;;;;;;;-145.18;100.00;46658.44;4988076;28;20372;-71
2022/10/30 02:28:36;;;;;;;20.90;9.20;;;;;;;-145.18;100.00;46662.34;4988185;28;20109;-71
2022/10/30 02:31:01;;;;;;;18.53;9.03;;;;;;;-145.18;100.00;46666.25;4988280;28;20065;-71
2022/10/30 02:33:26;;;;;;;20.97;9.37;;;;;;;-145.18;100.00;46658.44;4988039;28;20118;-71
2022/10/30 02:35:53;;;;;;;20.60;9.63;;;;;;;-145.18;100.00;46664.31;4988344;28;20041;-71
2022/10/30 02:38:18;;;;;;;20.33;10.00;;;;;;;-145.18;100.00;46660.41;4988235;28;20126;-72
2022/10/30 02:40:44;;;;;;;25.63;10.23;;;;;;;-145.18;100.00;46664.31;4988068;28;20113;-71
2022/10/30 02:43:09;;;;;;;26.63;9.70;;;;;;;-145.18;100.00;46660.41;4987774;28;20103;-72
2022/10/30 02:45:35;;;;;;;17.30;9.73;;;;;;;-145.18;100.00;46670.16;4988308;28;20031;-71
2022/10/30 02:48:00;;;;;;;20.67;10.00;;;;;;;-145.18;100.00;46666.25;4987713;28;20035;-71
2022/10/30 02:50:26;;;;;;;19.10;8.63;;;;;;;-145.18;100.00;46668.22;4988265;28;20049;-72
2022/10/30 02:52:52;;;;;;;21.50;10.17;;;;;;;-145.18;100.00;46668.22;4970422;28;20475;-72
2022/10/30 02:55:17;;;;;;;25.50;10.07;;;;;;;-145.18;100.00;46668.22;4987954;28;20042;-72
2022/10/30 02:57:43;;;;;;;18.40;9.43;;;;;;;-145.18;100.00;46670.16;4987835;28;20058;-72
2022/10/30 03:00:09;;;;;;;24.53;9.73;;;;;;;-145.18;100.00;46668.22;4988223;28;20106;-72
2022/10/30 03:02:34;;;;;;;19.50;9.60;;;;;;;-145.18;100.00;46664.31;5354766;22;20137;-71
2022/10/30 03:04:59;;;;;;;19.10;9.37;;;;;;;-145.18;100.00;46670.16;5001095;28;20068;-72
2022/10/30 03:07:25;;;;;;;20.53;10.10;;;;;;;-145.18;100.00;46674.06;4992353;28;20493;-72
2022/10/30 03:09:51;;;;;;;24.50;10.07;;;;;;;-145.18;100.00;46668.22;5009783;28;20478;-72
2022/10/30 03:12:16;;;;;;;22.30;10.13;;;;;;;-145.18;100.00;46660.41;5009793;28;20038;-72
2022/10/30 03:14:42;;;;;;;23.33;9.90;;;;;;;-145.18;100.00;46664.31;5010196;28;20038;-72
2022/10/30 03:17:07;;;;;;;21.83;10.57;;;;;;;-145.18;100.00;46658.44;5009707;28;20034;-72
2022/10/30 03:19:33;;;;;;;20.67;10.77;;;;;;;-145.18;100.00;46658.44;5010220;28;20078;-72
2022/10/30 03:21:58;;;;;;;27.03;11.50;;;;;;;-145.18;100.00;46660.41;5009794;28;20129;-72
2022/10/30 03:24:23;;;;;;;29.87;10.93;;;;;;;-145.18;100.00;46664.31;5009951;28;20041;-72
2022/10/30 03:26:49;;;;;;;23.03;11.57;;;;;;;-145.18;100.00;46656.50;5010132;28;20095;-72
2022/10/30 03:29:14;;;;;;;23.90;11.57;;;;;;;-145.18;100.00;46656.50;5068931;28;20044;-71
2022/10/30 03:31:39;;;;;;;27.33;12.00;;;;;;;-145.18;100.00;46660.41;5093819;28;20048;-71
2022/10/30 03:34:05;;;;;;;23.10;12.33;;;;;;;-145.18;100.00;46662.34;5093383;28;20064;-72
2022/10/30 03:36:30;;;;;;;27.37;13.10;;;;;;;-145.18;100.00;46664.31;5094003;28;20043;-72
2022/10/30 03:38:55;;;;;;;24.23;11.73;;;;;;;-145.18;100.00;46662.34;5093407;28;20035;-71
2022/10/30 03:41:21;;;;;;;23.07;11.67;;;;;;;-145.18;100.00;46656.50;5093320;28;20036;-72
2022/10/30 03:43:46;;;;;;;25.00;12.40;;;;;;;-145.18;100.00;46662.34;5093590;28;20040;-72
2022/10/30 03:46:12;;;;;;;29.43;12.50;;;;;;;-145.18;100.00;46662.34;5093334;28;20036;-72
2022/10/30 03:48:37;;;;;;;19.97;11.07;;;;;;;-145.18;100.00;46662.34;5093299;28;20032;-72
2022/10/30 03:51:03;;;;;;;23.17;10.90;;;;;;;-145.18;100.00;46664.31;5093040;28;20036;-72
2022/10/30 03:53:28;;;;;;;22.57;11.37;;;;;;;-145.18;100.00;46664.31;5093014;28;20035;-73
2022/10/30 03:56:00;;;;;;;25.73;11.10;;;;;;;-145.18;100.00;46658.44;5093332;28;20039;-72
2022/10/30 03:58:26;;;;;;;21.77;11.37;;;;;;;-145.18;100.00;46658.44;5092811;28;20023;-72
2022/10/30 04:00:52;;;;;;;22.27;11.17;;;;;;;-145.18;100.00;46656.50;5092979;28;20428;-72
2022/10/30 04:03:17;;;;;;;23.00;12.07;;;;;;;-145.18;100.00;46660.41;5092173;28;20050;-72
2022/10/30 04:05:43;;;;;;;23.80;11.90;;;;;;;-145.18;100.00;46652.59;5093066;28;20555;-71
2022/10/30 04:08:13;;;;;;;20.50;10.77;;;;;;;-145.18;100.00;46658.44;5092643;28;20441;-72
2022/10/30 04:10:45;;;;;;;26.47;12.63;;;;;;;-145.18;100.00;46658.44;5092749;28;20043;-71
2022/10/30 04:13:13;;;;;;;26.37;14.17;;;;;;;-145.18;100.00;46656.50;5092513;28;20140;-72
2022/10/30 04:15:39;;;;;;;21.80;10.77;;;;;;;-145.18;100.00;46660.41;5092507;28;20036;-72
2022/10/30 04:18:04;;;;;;;20.07;11.77;;;;;;;-145.18;100.00;46660.41;5092453;28;20032;-72
2022/10/30 04:20:30;;;;;;;24.70;12.27;;;;;;;-145.18;100.00;46658.44;5092844;28;20526;-72
2022/10/30 04:23:03;;;;;;;20.93;10.87;;;;;;;-145.18;100.00;46656.50;5092251;28;20028;-71
2022/10/30 04:25:30;;;;;;;27.30;11.03;;;;;;;-145.18;100.00;46658.44;5092600;28;20028;-72
2022/10/30 04:27:55;;;;;;;21.60;10.53;;;;;;;-145.18;100.00;46656.50;5091965;28;20044;-71
2022/10/30 04:30:22;;;;;;;24.67;11.30;;;;;;;-145.18;100.00;46660.41;5092146;28;20036;-72
2022/10/30 04:32:52;;;;;;;27.60;11.37;;;;;;;-145.18;100.00;46662.34;5092336;28;20157;-71
2022/10/30 04:35:20;;;;;;;22.73;11.17;;;;;;;-145.18;100.00;46652.59;5092243;28;20028;-71
2022/10/30 04:37:55;;;;;;;26.47;11.47;;;;;;;-145.18;100.00;46656.50;5092171;28;20036;-72
2022/10/30 04:40:22;;;;;;;26.85;11.15;;;;;;;-145.18;100.00;46654.53;5091962;28;20145;-72
2022/10/30 04:42:48;;;;;;;19.80;11.17;;;;;;;-145.18;100.00;46656.50;5092081;28;20072;-72
2022/10/30 04:45:13;;;;;;;20.93;11.73;;;;;;;-145.18;100.00;46660.41;5092053;28;20040;-72
2022/10/30 04:47:39;;;;;;;27.47;11.87;;;;;;;-145.18;100.00;46654.53;5091581;28;20039;-71
2022/10/30 04:50:05;;;;;;;28.83;11.53;;;;;;;-145.18;100.00;46658.44;5091760;28;20043;-72
2022/10/30 04:52:30;;;;;;;22.70;12.20;;;;;;;-145.18;100.00;46658.44;5084790;28;20032;-71
2022/10/30 04:54:56;;;;;;;26.93;13.03;;;;;;;-145.18;100.00;46656.50;5008808;28;20034;-72
2022/10/30 04:57:21;;;;;;;26.30;12.90;;;;;;;-145.18;100.00;46656.50;5008669;28;20030;-72
2022/10/30 04:59:46;;;;;;;27.13;12.60;;;;;;;-145.18;100.00;46652.59;5009006;28;20147;-72
2022/10/30 05:02:12;;;;;;;20.83;12.30;;;;;;;-145.18;100.00;46658.44;5008470;28;20127;-71
2022/10/30 05:04:37;;;;;;;26.40;12.00;;;;;;;-145.18;100.00;46656.50;4996756;28;20389;-71
2022/10/30 05:07:03;;;;;;;22.67;12.07;;;;;;;-145.18;100.00;46656.50;4998947;28;20030;-72
2022/10/30 05:09:28;;;;;;;23.13;11.43;;;;;;;-145.18;100.00;46654.53;4979588;28;20054;-72
2022/10/30 05:11:54;;;;;;;20.57;9.27;;;;;;;-145.18;100.00;46652.59;4997684;28;20030;-72
2022/10/30 05:14:19;;;;;;;20.70;9.37;;;;;;;-145.18;100.00;46658.44;4995724;28;20034;-71
2022/10/30 05:16:44;;;;;;;19.83;10.30;;;;;;;-145.18;100.00;46654.53;4996745;28;20022;-71
2022/10/30 05:19:10;;;;;;;19.73;10.13;;;;;;;-145.18;100.00;46660.41;4996652;28;20509;-71
2022/10/30 05:21:35;;;;;;;22.30;11.10;;;;;;;-145.18;100.00;46658.44;4996906;28;20280;-71
2022/10/30 05:24:01;;;;;;;23.50;9.80;;;;;;;-145.18;100.00;46660.41;4999429;28;20029;-70
2022/10/30 05:26:26;;;;;;;25.53;10.53;;;;;;;-145.18;100.00;46656.50;5005959;28;20029;-72
2022/10/30 05:28:52;;;;;;;22.30;11.77;;;;;;;-145.18;100.00;46656.50;4998422;28;20118;-72
2022/10/30 05:31:17;;;;;;;22.47;10.97;;;;;;;-145.18;100.00;46660.41;5000430;28;20061;-72
2022/10/30 05:33:42;;;;;;;53.40;13.07;;;;;;;-145.18;100.00;46660.41;4998207;28;20080;-71
2022/10/30 05:36:08;;;;;;;19.57;10.37;;;;;;;-145.18;100.00;46660.41;4999686;28;20117;-71
2022/10/30 05:38:33;;;;;;;27.70;11.40;;;;;;;-145.18;100.00;46654.53;5000970;28;20045;-72
2022/10/30 05:40:59;;;;;;;24.70;11.47;;;;;;;-145.18;100.00;46658.44;5006998;28;20045;-72
2022/10/30 05:43:24;;;;;;;26.67;12.07;;;;;;;-145.18;100.00;46654.53;5006154;28;20116;-72
2022/10/30 05:45:49;;;;;;;25.20;10.73;;;;;;;-145.18;100.00;46652.59;5002819;28;20038;-72
2022/10/30 05:48:15;;;;;;;23.40;11.57;;;;;;;-145.18;100.00;46654.53;5007377;28;20588;-72
2022/10/30 05:50:40;;;;;;;32.33;13.17;;;;;;;-145.18;100.00;46658.44;5075347;28;20082;-72
2022/10/30 05:53:05;;;;;;;27.63;12.63;;;;;;;-145.18;100.00;46654.53;5007592;28;20514;-72
2022/10/30 05:55:32;;;;;;;25.27;11.93;;;;;;;-145.18;100.00;46658.44;5006699;28;20038;-72
2022/10/30 05:57:59;;;;;;;27.57;11.80;;;;;;;-145.18;100.00;46650.63;5003583;28;20030;-72
2022/10/30 06:00:27;;;;;;;29.77;13.20;;;;;;;-145.18;100.00;46646.72;5007805;28;20021;-72
2022/10/30 06:03:00;;;;;;;30.93;12.53;;;;;;;-145.18;100.00;46660.41;5007807;28;20476;-71
2022/10/30 06:05:26;;;;;;;23.57;11.97;;;;;;;-145.18;100.00;46652.59;5007914;28;20508;-71
2022/10/30 06:07:55;;;;;;;29.23;12.07;;;;;;;-145.18;100.00;46656.50;5007705;28;20037;-71
2022/10/30 06:10:21;;;;;;;38.57;11.83;;;;;;;-145.18;100.00;46652.59;5007914;28;20030;-71
2022/10/30 06:12:54;;;;;;;25.90;11.70;;;;;;;-145.18;100.00;46652.59;5002706;28;20443;-71
2022/10/30 06:15:20;;;;;;;24.87;12.90;;;;;;;-145.18;100.00;46656.50;5006753;28;20049;-72
2022/10/30 06:17:45;;;;;;;22.53;11.30;;;;;;;-145.18;100.00;46652.59;5006523;28;20037;-72
2022/10/30 06:20:11;;;;;;;18.73;11.27;;;;;;;-145.18;100.00;46658.44;5007914;28;20042;-72
2022/10/30 06:22:36;;;;;;;28.67;12.10;;;;;;;-145.18;100.00;46650.63;5006637;28;20069;-72
2022/10/30 06:25:02;;;;;;;26.63;12.00;;;;;;;-145.18;100.00;46654.53;5007798;28;20077;-72
2022/10/30 06:27:27;;;;;;;25.07;12.03;;;;;;;-145.18;100.00;46650.63;5000114;28;20081;-72
2022/10/30 06:29:53;;;;;;;20.73;12.10;;;;;;;-145.18;100.00;46656.50;4988345;28;20070;-72
2022/10/30 06:32:19;;;;;;;32.10;12.80;;;;;;;-145.18;100.00;46658.44;4988249;28;20451;-72
2022/10/30 06:34:45;;;;;;;22.63;12.23;;;;;;;-145.18;100.00;46650.63;4987848;28;20138;-72
2022/10/30 06:37:10;;;;;;;22.03;11.17;;;;;;;-145.18;100.00;46648.69;4998580;28;20034;-72
2022/10/30 06:39:35;;;;;;;19.47;11.07;;;;;;;-145.18;100.00;46650.63;5008646;28;20326;-72
2022/10/30 06:42:01;;;;;;;22.70;12.03;;;;;;;-145.18;100.00;46650.63;5011049;28;20034;-72
2022/10/30 06:44:26;;;;;;;21.67;11.13;;;;;;;-145.18;100.00;46652.59;5011135;28;20057;-72
2022/10/30 06:46:52;;;;;;;23.17;11.37;;;;;;;-145.18;100.00;46654.53;5011091;28;20052;-72
2022/10/30 06:49:18;;;;;;;23.50;11.83;;;;;;;-145.18;100.00;46652.59;5010810;28;20520;-72
2022/10/30 06:51:43;;;;;;;23.97;11.47;;;;;;;-145.18;100.00;46652.59;5011075;28;20058;-71
2022/10/30 06:54:08;;;;;;;24.13;11.07;;;;;;;-145.18;100.00;46652.59;5006196;28;20023;-72
2022/10/30 06:56:34;;;;;;;29.20;12.60;;;;;;;-145.18;100.00;46652.59;5003100;28;20062;-72
2022/10/30 06:58:59;;;;;;;25.53;12.43;;;;;;;-145.18;100.00;46654.53;5010322;28;20034;-71
2022/10/30 07:01:24;;;;;;;22.10;11.37;;;;;;;-145.18;100.00;46656.50;5006712;28;20092;-72
2022/10/30 07:03:50;;;;;;;27.83;12.13;;;;;;;-145.18;100.00;46654.53;5009726;28;20501;-72
2022/10/30 07:06:15;;;;;;;23.47;11.27;;;;;;;-145.18;100.00;46656.50;5010341;28;20497;-71
2022/10/30 07:08:40;;;;;;;21.67;11.70;;;;;;;-145.18;100.00;46656.50;5010649;28;20464;-72
2022/10/30 07:11:06;;;;;;;27.33;12.13;;;;;;;-145.18;100.00;46656.50;4979459;28;20077;-72
2022/10/30 07:13:31;;;;;;;25.10;12.03;;;;;;;-145.18;100.00;46658.44;4973526;28;20088;-72
2022/10/30 07:15:57;;;;;;;22.00;11.73;;;;;;;-145.18;100.00;46652.59;5007580;28;20049;-72
2022/10/30 07:18:23;;;;;;;20.77;11.20;;;;;;;-145.18;100.00;46660.41;5015625;28;20057;-72
2022/10/30 07:20:53;;;;;;;25.40;10.43;;;;;;;-145.18;100.00;46650.63;5010307;28;20038;-73
2022/10/30 07:23:19;;;;;;;20.37;11.50;;;;;;;-145.18;100.00;46656.50;5019164;28;20393;-72
2022/10/30 07:25:44;;;;;;;32.37;11.63;;;;;;;-145.18;100.00;46654.53;5010567;28;20038;-72
2022/10/30 07:28:09;;;;;;;22.50;11.30;;;;;;;-145.18;100.00;46658.44;5009726;28;20080;-73
2022/10/30 07:30:35;;;;;;;24.17;11.80;;;;;;;-145.18;100.00;46660.41;5010310;28;20133;-72
2022/10/30 07:33:03;;;;;;;19.30;10.43;;;;;;;-145.18;100.00;46660.41;5009163;28;20034;-71
2022/10/30 07:35:30;;;;;;;26.03;11.70;;;;;;;-145.18;100.00;46656.50;4993575;28;20114;-72
2022/10/30 07:37:55;;;;;;;21.73;10.57;;;;;;;-145.18;100.00;46660.41;4989890;28;20058;-72
2022/10/30 07:40:21;;;;;;;24.07;11.23;;;;;;;-145.18;100.00;46660.41;5005296;28;20481;-72
2022/10/30 07:42:47;;;;;;;24.43;12.13;;;;;;;-145.18;100.00;46652.59;5008597;28;20038;-72
2022/10/30 07:45:12;;;;;;;24.83;11.97;;;;;;;-145.18;100.00;46656.50;5009460;28;20440;-72
2022/10/30 07:47:42;;;;;;;25.50;11.77;;;;;;;-145.18;100.00;46656.50;5005530;28;20050;-72
2022/10/30 07:50:08;;;;;;;29.20;11.33;;;;;;;-145.18;100.00;46652.59;5008579;28;20105;-72
2022/10/30 07:52:34;;;;;;;27.47;13.07;;;;;;;-145.18;100.00;46658.44;4999294;28;20475;-72
2022/10/30 07:54:59;;;;;;;22.83;11.33;;;;;;;-145.18;100.00;46658.44;5004345;28;20053;-72
2022/10/30 07:57:25;;;;;;;20.87;11.53;;;;;;;-145.18;100.00;46656.50;5009915;28;20037;-72
2022/10/30 07:59:50;;;;;;;21.63;12.17;;;;;;;-145.18;100.00;46656.50;5009745;28;20482;-72
2022/10/30 08:02:15;;;;;;;23.70;11.50;;;;;;;-145.18;100.00;46656.50;5009367;28;20513;-72
2022/10/30 08:04:41;;;;;;;29.57;13.17;;;;;;;-145.18;100.00;46656.50;5009547;28;20611;-72
2022/10/30 08:07:06;;;;;;;33.47;14.60;;;;;;;-145.18;100.00;46654.53;5009533;28;20042;-72
2022/10/30 08:09:31;;;;;;;26.50;13.17;;;;;;;-145.18;100.00;46652.59;5009309;28;20081;-72
2022/10/30 08:11:57;;;;;;;27.30;12.57;;;;;;;-145.18;100.00;46656.50;4999166;28;20035;-72
2022/10/30 08:14:22;;;;;;;24.70;13.07;;;;;;;-145.18;100.00;46660.41;4993662;28;20087;-72
2022/10/30 08:16:49;;;;;;;27.37;13.47;;;;;;;-145.18;100.00;46660.41;4988839;28;20505;-72
2022/10/30 08:19:14;;;;;;;28.57;14.13;;;;;;;-145.18;100.00;46662.34;4989405;28;20149;-72
2022/10/30 08:21:39;;;;;;;22.00;12.87;;;;;;;-145.18;100.00;46666.25;4972197;28;20125;-72
2022/10/30 08:24:05;;;;;;;31.07;13.37;;;;;;;-145.18;100.00;46662.34;4988281;28;20075;-72
2022/10/30 08:26:30;;;;;;;28.77;13.13;;;;;;;-145.18;100.00;46666.25;4989328;28;20031;-73
2022/10/30 08:28:56;;;;;;;25.07;12.37;;;;;;;-145.18;100.00;46660.41;4989621;28;20034;-73
2022/10/30 08:31:21;;;;;;;27.53;12.30;;;;;;;-145.18;100.00;46662.34;4989525;28;20046;-73
2022/10/30 08:33:46;;;;;;;24.97;13.00;;;;;;;-145.18;100.00;46666.25;4989774;28;20482;-73
2022/10/30 08:36:12;;;;;;;33.80;13.57;;;;;;;-145.18;100.00;46666.25;4989628;28;20820;-73
2022/10/30 08:38:37;;;;;;;26.70;12.53;;;;;;;-145.18;100.00;46672.13;4989034;28;20121;-73
2022/10/30 08:41:02;;;;;;;26.67;12.60;;;;;;;-145.18;100.00;46672.13;4989232;28;20520;-74
2022/10/30 08:43:28;;;;;;;19.80;12.17;;;;;;;-145.18;100.00;46668.22;4989217;28;20035;-73
2022/10/30 08:45:57;;;;;;;24.37;12.60;;;;;;;-145.18;100.00;46672.13;4972260;28;20034;-73
2022/10/30 08:48:22;;;;;;;29.60;12.00;;;;;;;-145.18;100.00;46674.06;4989237;28;20038;-73
2022/10/30 08:50:47;;;;;;;25.87;12.43;;;;;;;-145.18;100.00;46676.03;4989704;28;20367;-73
2022/10/30 08:53:14;;;;;;;27.43;13.30;;;;;;;-145.18;100.00;46672.13;4989147;28;20582;-73
2022/10/30 08:55:40;;;;;;;30.10;13.40;;;;;;;-145.18;100.00;46672.13;4989429;28;20034;-73
2022/10/30 08:58:05;;;;;;;25.23;12.63;;;;;;;-145.18;100.00;46677.97;4988999;28;20035;-73
2022/10/30 09:00:31;;;;;;;21.13;12.63;;;;;;;-145.18;100.00;46676.03;4989626;28;20104;-73
2022/10/30 09:02:56;;;;;;;33.17;12.40;;;;;;;-145.18;100.00;46679.94;4988877;28;20069;-73
2022/10/30 09:05:22;;;;;;;33.33;12.13;;;;;;;-145.18;100.00;46681.88;4988920;28;20046;-73
2022/10/30 09:07:47;;;;;;;24.67;13.23;;;;;;;-145.18;100.00;46679.94;4989154;28;20042;-73
2022/10/30 09:10:13;;;;;;;28.40;13.03;;;;;;;-145.18;100.00;46683.84;4971536;28;20049;-73
2022/10/30 09:12:39;;;;;;;25.03;12.77;;;;;;;-145.18;100.00;46679.94;4989309;28;20031;-73
2022/10/30 09:15:05;;;;;;;33.47;13.83;;;;;;;-145.18;100.00;46683.84;4988922;28;20752;-73
2022/10/30 09:17:30;;;;;;;21.93;12.47;;;;;;;-145.18;100.00;46681.88;4989286;28;20085;-73
2022/10/30 09:19:56;;;;;;;24.67;12.73;;;;;;;-145.18;100.00;46679.94;4988602;28;20039;-73
2022/10/30 09:22:21;;;;;;;28.50;13.10;;;;;;;-145.18;100.00;46681.88;4988552;28;20348;-73
2022/10/30 09:24:46;;;;;;;32.20;14.67;;;;;;;-145.18;100.00;46679.94;4971695;28;20114;-73
2022/10/30 09:27:12;;;;;;;25.50;12.57;;;;;;;-145.18;100.00;46685.78;4988535;28;20042;-73
2022/10/30 09:29:37;;;;;;;28.97;13.17;;;;;;;-145.18;100.00;46679.94;4988739;28;20038;-73
2022/10/30 09:32:07;;;;;;;25.80;12.93;;;;;;;-145.18;100.00;46676.03;4988638;28;20133;-73
2022/10/30 09:34:33;;;;;;;26.27;13.43;;;;;;;-145.18;100.00;46679.94;4988692;28;20030;-73
2022/10/30 09:36:58;;;;;;;19.13;11.90;;;;;;;-145.18;100.00;46683.84;4988957;28;20498;-73
2022/10/30 09:39:24;;;;;;;22.47;12.47;;;;;;;-145.18;100.00;46681.88;4988322;28;20022;-73
2022/10/30 09:41:52;;;;;;;25.33;12.47;;;;;;;-145.18;100.00;46683.84;4988882;28;20706;-73
2022/10/30 09:44:17;;;;;;;26.80;12.93;;;;;;;-145.18;100.00;46685.78;4988085;28;20023;-73
2022/10/30 09:46:52;;;;;;;27.57;11.77;;;;;;;-145.18;100.00;46683.84;4988595;28;20101;-73
2022/10/30 09:49:23;;;;;;;21.60;11.77;;;;;;;-145.18;100.00;46668.22;4988314;28;20035;-73
2022/10/30 09:52:16;;;;;;;26.23;11.43;;;;;;;-145.18;100.00;46650.63;4988933;28;20061;-73
2022/10/30 09:55:03;;;;;;;26.40;12.37;;;;;;;-145.18;100.00;46617.41;4988329;28;20100;-73
2022/10/30 09:57:47;;;;;;;23.50;11.40;;;;;;;-145.18;100.00;46592.03;4988449;28;20042;-73
2022/10/30 10:00:17;;;;;;;21.17;11.67;;;;;;;-145.18;100.00;46578.34;4988276;28;20031;-74
2022/10/30 10:03:30;;;;;;;22.47;11.23;;;;;;;-145.18;100.00;46568.59;4988133;28;20045;-74
2022/10/30 10:05:59;;;;;;;24.50;11.97;;;;;;;-145.18;100.00;46560.78;5005712;28;20526;-74
2022/10/30 10:08:54;;;;;;;27.53;11.90;;;;;;;-145.18;100.00;46564.69;4987683;28;20560;-74
2022/10/30 10:11:35;;;;;;;23.83;11.57;;;;;;;-145.18;100.00;46570.53;4988745;28;20038;-74
2022/10/30 10:14:07;;;;;;;22.60;10.60;;;;;;;-145.18;100.00;46572.50;4987450;28;20114;-73
2022/10/30 10:16:37;;;;;;;26.70;10.87;;;;;;;-145.18;100.00;46566.63;4988080;28;20425;-74
2022/10/30 10:19:30;;;;;;;23.80;10.20;;;;;;;-145.18;100.00;46578.34;4987829;28;20034;-74
2022/10/30 10:22:01;;;;;;;25.97;9.97;;;;;;;-145.18;100.00;46582.25;4996234;28;20033;-73
2022/10/30 10:24:30;;;;;;;22.37;10.07;;;;;;;-145.18;100.00;46586.16;4997536;28;20034;-74
2022/10/30 10:27:15;;;;;;;21.07;9.70;;;;;;;-145.18;100.00;46590.06;4996324;28;20034;-73
2022/10/30 10:30:14;;;;;;;25.93;10.00;;;;;;;-145.18;100.00;46588.13;4997075;28;20765;-74
2022/10/30 10:33:10;;;;;;;24.97;9.63;;;;;;;-145.18;100.00;46580.31;4987976;28;20030;-73
2022/10/30 10:35:49;;;;;;;22.13;9.57;;;;;;;-145.18;100.00;46592.03;4987463;28;20110;-74
2022/10/30 10:38:49;;;;;;;24.73;10.33;;;;;;;-145.18;100.00;46584.22;4987398;28;20034;-74
2022/10/30 10:41:15;;;;;;;22.57;11.53;;;;;;;-145.18;100.00;46586.16;4987436;28;20038;-74
2022/10/30 10:44:00;;;;;;;29.40;10.40;;;;;;;-145.18;100.00;46597.88;4987675;28;20019;-74
2022/10/30 10:47:02;;;;;;;22.48;9.77;;;;;;;-145.18;100.00;46605.69;4987500;28;20117;-73
2022/10/30 10:49:43;;;;;;;26.93;9.87;;;;;;;-145.18;100.00;46597.88;4987685;28;20038;-74
2022/10/30 10:52:14;;;;;;;24.80;10.33;;;;;;;-145.18;100.00;46601.78;4987498;28;20023;-72
2022/10/30 10:54:50;;;;;;;16.60;9.13;;;;;;;-145.18;100.00;46621.31;4987614;28;20030;-74
2022/10/30 10:57:36;;;;;;;26.67;9.83;;;;;;;-145.18;100.00;46625.22;4987658;28;20035;-73
2022/10/30 11:00:03;;;;;;;25.15;9.05;;;;;;;-145.18;100.00;46617.41;4990226;28;20376;-74
2022/10/30 11:02:51;;;;;;;20.97;9.33;;;;;;;-145.18;100.00;46646.72;4987538;28;20047;-74
2022/10/30 11:05:19;;;;;;;21.67;10.37;;;;;;;-145.18;100.00;46656.50;4982882;28;20030;-74